Mackinaw City, MI (49701)

9:51 PM EST on February 09, 2016 (GMT -0500)
NOS_NWLON | | Change Station
CLOSE
Current Station
Personal Weather Station
Location: Mackinaw City, MI
Elevation: 580 ft
Nearby Weather Stations

Elev 580 ft 45.78 °N, 84.73 °W | Updated 33 minutes ago

Snow
Snow
17 °F
Feels Like 2 °F
N
17
Wind Variable Wind from NW
Gusts 23.0 mph

Today
High -- | Low -- °F
--% Chance of Precip.
Yesterday
High -- | Low -- °F
Precip. -- in
Pressure 29.70 in
Visibility 2.5 miles
Clouds Overcast 1300 ft
Windchill 2 °F
Dew Point Not available.
Humidity Not available.
Rainfall in
Snow Depth Not available.
7:50 AM 5:56 PM
Waxing Crescent, 3% visible
METAR KMCD 100237Z AUTO 34010G18KT 2 1/2SM -SN OVC013 M09/M11 A2970 RMK AO2 T10861107
Pressure 29.70 in
Visibility 2.5 miles
Clouds Overcast 1300 ft
Windchill 2 °F
Dew Point Not available.
Humidity Not available.
Rainfall in
Snow Depth Not available.
7:50 AM 5:56 PM
Waxing Crescent, 3% visible
METAR KMCD 100237Z AUTO 34010G18KT 2 1/2SM -SN OVC013 M09/M11 A2970 RMK AO2 T10861107

10-Day Weather Forecast

Almanac

Astronomy

Feb. 09, 2016 Rise Set
Actual Time
Civil Twilight
Nautical Twilight
Astronomical Twilight
Moon
Length of Visible Light
Length of Day
Tomorrow will be .
, % of the Moon is Illuminated

Today's Extremes

State Highs State Lows

Community

WunderPhotos

Upload Photos

1,891,786 photos uploaded!

WunderBlog® & News

Nearby

Air Quality

  Air Quality AQ Index Pollutant
Not available.

Snow Depth

Station Depth Elevation

Earthquake Activity

City Distance Mag. Time & Date
Minimum magnitude displayed is 2.5.

Coastal Water Temperatures

Place Temperature

Stations

Nearby Weather Stations

Station Location Temp. Windchill Dew Point Humidity Wind Precip. Elev Updated Type
                   

Watches & Warnings

There are currently no watches in effect.